sensor_id;sensor_type;location;lat;lon;timestamp;temperature;humidity
73955;DHT22;62306;52.516;13.290;2022-08-02T00:02:26;20.30;70.30
73955;DHT22;62306;52.516;13.290;2022-08-02T00:04:53;20.30;70.10
73955;DHT22;62306;52.516;13.290;2022-08-02T00:07:20;20.40;69.80
73955;DHT22;62306;52.516;13.290;2022-08-02T00:09:47;20.30;69.90
73955;DHT22;62306;52.516;13.290;2022-08-02T00:12:15;20.30;70.00
73955;DHT22;62306;52.516;13.290;2022-08-02T00:14:42;20.30;70.70
73955;DHT22;62306;52.516;13.290;2022-08-02T00:17:09;20.30;70.40
73955;DHT22;62306;52.516;13.290;2022-08-02T00:19:37;20.40;70.10
73955;DHT22;62306;52.516;13.290;2022-08-02T00:22:04;20.40;69.20
73955;DHT22;62306;52.516;13.290;2022-08-02T00:24:31;20.50;67.60
73955;DHT22;62306;52.516;13.290;2022-08-02T00:26:58;20.50;67.80
73955;DHT22;62306;52.516;13.290;2022-08-02T00:29:28;20.50;67.20
73955;DHT22;62306;52.516;13.290;2022-08-02T00:31:55;20.50;65.20
73955;DHT22;62306;52.516;13.290;2022-08-02T00:34:22;20.60;64.90
73955;DHT22;62306;52.516;13.290;2022-08-02T00:36:51;20.50;64.70
73955;DHT22;62306;52.516;13.290;2022-08-02T00:39:18;20.60;64.50
73955;DHT22;62306;52.516;13.290;2022-08-02T00:41:46;20.40;64.80
73955;DHT22;62306;52.516;13.290;2022-08-02T00:44:14;20.40;64.60
73955;DHT22;62306;52.516;13.290;2022-08-02T00:46:41;20.40;64.40
73955;DHT22;62306;52.516;13.290;2022-08-02T00:49:08;20.30;65.50
73955;DHT22;62306;52.516;13.290;2022-08-02T00:51:35;20.30;65.10
73955;DHT22;62306;52.516;13.290;2022-08-02T00:54:05;20.30;64.90
73955;DHT22;62306;52.516;13.290;2022-08-02T00:56:32;20.20;64.40
73955;DHT22;62306;52.516;13.290;2022-08-02T00:59:00;20.20;64.80
73955;DHT22;62306;52.516;13.290;2022-08-02T01:01:27;20.20;64.40
73955;DHT22;62306;52.516;13.290;2022-08-02T01:04:05;20.10;64.90
73955;DHT22;62306;52.516;13.290;2022-08-02T01:06:32;20.00;65.00
73955;DHT22;62306;52.516;13.290;2022-08-02T01:09:00;20.10;64.90
73955;DHT22;62306;52.516;13.290;2022-08-02T01:11:28;20.00;65.20
73955;DHT22;62306;52.516;13.290;2022-08-02T01:13:59;20.10;65.10
73955;DHT22;62306;52.516;13.290;2022-08-02T01:16:31;20.00;65.50
73955;DHT22;62306;52.516;13.290;2022-08-02T01:19:09;20.10;65.70
73955;DHT22;62306;52.516;13.290;2022-08-02T01:21:52;20.10;65.90
73955;DHT22;62306;52.516;13.290;2022-08-02T01:24:54;20.00;66.30
73955;DHT22;62306;52.516;13.290;2022-08-02T01:27:28;20.00;66.50
73955;DHT22;62306;52.516;13.290;2022-08-02T01:30:02;19.90;66.90
73955;DHT22;62306;52.516;13.290;2022-08-02T01:32:34;19.90;67.10
73955;DHT22;62306;52.516;13.290;2022-08-02T01:35:02;19.90;67.80
73955;DHT22;62306;52.516;13.290;2022-08-02T01:37:38;20.00;68.10
73955;DHT22;62306;52.516;13.290;2022-08-02T01:40:10;20.00;67.90
73955;DHT22;62306;52.516;13.290;2022-08-02T01:42:40;19.90;67.70
73955;DHT22;62306;52.516;13.290;2022-08-02T01:45:11;20.00;67.70
73955;DHT22;62306;52.516;13.290;2022-08-02T01:47:40;20.00;67.70
73955;DHT22;62306;52.516;13.290;2022-08-02T01:50:10;20.00;67.70
73955;DHT22;62306;52.516;13.290;2022-08-02T01:52:41;20.00;68.00
73955;DHT22;62306;52.516;13.290;2022-08-02T01:55:12;20.00;68.00
73955;DHT22;62306;52.516;13.290;2022-08-02T01:57:44;20.00;67.20
73955;DHT22;62306;52.516;13.290;2022-08-02T02:00:14;19.90;66.50
73955;DHT22;62306;52.516;13.290;2022-08-02T02:02:43;19.90;66.80
73955;DHT22;62306;52.516;13.290;2022-08-02T02:05:13;19.90;66.40
73955;DHT22;62306;52.516;13.290;2022-08-02T02:07:43;19.80;66.50
73955;DHT22;62306;52.516;13.290;2022-08-02T02:10:14;19.70;66.00
73955;DHT22;62306;52.516;13.290;2022-08-02T02:12:45;19.70;65.30
73955;DHT22;62306;52.516;13.290;2022-08-02T02:15:14;19.70;65.00
73955;DHT22;62306;52.516;13.290;2022-08-02T02:17:43;19.70;64.10
73955;DHT22;62306;52.516;13.290;2022-08-02T02:20:13;19.70;64.00
73955;DHT22;62306;52.516;13.290;2022-08-02T02:22:42;19.70;63.90
73955;DHT22;62306;52.516;13.290;2022-08-02T02:25:10;19.50;64.10
73955;DHT22;62306;52.516;13.290;2022-08-02T02:27:41;19.60;63.70
73955;DHT22;62306;52.516;13.290;2022-08-02T02:30:09;19.50;63.50
73955;DHT22;62306;52.516;13.290;2022-08-02T02:32:40;19.60;63.40
73955;DHT22;62306;52.516;13.290;2022-08-02T02:35:08;19.50;63.40
73955;DHT22;62306;52.516;13.290;2022-08-02T02:37:37;19.50;63.60
73955;DHT22;62306;52.516;13.290;2022-08-02T02:40:06;19.50;63.70
73955;DHT22;62306;52.516;13.290;2022-08-02T02:42:34;19.50;63.80
73955;DHT22;62306;52.516;13.290;2022-08-02T02:45:02;19.50;63.80
73955;DHT22;62306;52.516;13.290;2022-08-02T02:47:30;19.60;64.40
73955;DHT22;62306;52.516;13.290;2022-08-02T02:50:00;19.50;65.00
73955;DHT22;62306;52.516;13.290;2022-08-02T02:52:28;19.50;65.90
73955;DHT22;62306;52.516;13.290;2022-08-02T02:54:55;19.40;66.40
73955;DHT22;62306;52.516;13.290;2022-08-02T02:57:23;19.40;66.40
73955;DHT22;62306;52.516;13.290;2022-08-02T02:59:50;19.30;67.10
73955;DHT22;62306;52.516;13.290;2022-08-02T03:02:19;19.40;68.00
73955;DHT22;62306;52.516;13.290;2022-08-02T03:04:46;19.30;68.40
73955;DHT22;62306;52.516;13.290;2022-08-02T03:07:15;19.20;69.30
73955;DHT22;62306;52.516;13.290;2022-08-02T03:09:43;19.10;69.80
73955;DHT22;62306;52.516;13.290;2022-08-02T03:12:10;19.00;70.10
73955;DHT22;62306;52.516;13.290;2022-08-02T03:14:40;19.10;70.20
73955;DHT22;62306;52.516;13.290;2022-08-02T03:17:08;19.00;70.50
73955;DHT22;62306;52.516;13.290;2022-08-02T03:19:35;19.00;70.60
73955;DHT22;62306;52.516;13.290;2022-08-02T03:22:02;18.90;71.10
73955;DHT22;62306;52.516;13.290;2022-08-02T03:24:31;19.00;71.40
73955;DHT22;62306;52.516;13.290;2022-08-02T03:26:58;19.00;71.30
73955;DHT22;62306;52.516;13.290;2022-08-02T03:29:25;18.90;71.40
73955;DHT22;62306;52.516;13.290;2022-08-02T03:31:52;18.90;71.80
73955;DHT22;62306;52.516;13.290;2022-08-02T03:34:19;18.80;71.60
73955;DHT22;62306;52.516;13.290;2022-08-02T03:36:49;18.80;71.40
73955;DHT22;62306;52.516;13.290;2022-08-02T03:39:18;18.80;71.10
73955;DHT22;62306;52.516;13.290;2022-08-02T03:41:48;18.80;71.20
73955;DHT22;62306;52.516;13.290;2022-08-02T03:44:15;18.70;71.20
73955;DHT22;62306;52.516;13.290;2022-08-02T03:46:43;18.70;71.80
73955;DHT22;62306;52.516;13.290;2022-08-02T03:49:11;18.70;71.00
73955;DHT22;62306;52.516;13.290;2022-08-02T03:51:41;18.70;70.70
73955;DHT22;62306;52.516;13.290;2022-08-02T03:54:08;18.70;70.70
73955;DHT22;62306;52.516;13.290;2022-08-02T03:56:36;18.70;70.90
73955;DHT22;62306;52.516;13.290;2022-08-02T03:59:09;18.70;70.90
73955;DHT22;62306;52.516;13.290;2022-08-02T04:01:36;18.70;70.70
73955;DHT22;62306;52.516;13.290;2022-08-02T04:04:04;18.80;70.10
73955;DHT22;62306;52.516;13.290;2022-08-02T04:06:31;18.80;69.90
73955;DHT22;62306;52.516;13.290;2022-08-02T04:08:58;18.80;69.70
73955;DHT22;62306;52.516;13.290;2022-08-02T04:11:25;18.90;69.30
73955;DHT22;62306;52.516;13.290;2022-08-02T04:13:59;18.90;68.80
73955;DHT22;62306;52.516;13.290;2022-08-02T04:16:36;18.90;68.30
73955;DHT22;62306;52.516;13.290;2022-08-02T04:19:07;18.80;68.50
73955;DHT22;62306;52.516;13.290;2022-08-02T04:21:36;18.80;68.70
73955;DHT22;62306;52.516;13.290;2022-08-02T04:24:05;18.70;68.70
73955;DHT22;62306;52.516;13.290;2022-08-02T04:26:33;18.70;68.90
73955;DHT22;62306;52.516;13.290;2022-08-02T04:29:02;18.70;69.20
73955;DHT22;62306;52.516;13.290;2022-08-02T04:31:31;18.70;69.30
73955;DHT22;62306;52.516;13.290;2022-08-02T04:33:58;18.70;68.90
73955;DHT22;62306;52.516;13.290;2022-08-02T04:36:25;18.90;68.60
73955;DHT22;62306;52.516;13.290;2022-08-02T04:38:53;18.90;68.50
73955;DHT22;62306;52.516;13.290;2022-08-02T04:41:20;19.00;67.90
73955;DHT22;62306;52.516;13.290;2022-08-02T04:43:47;19.10;67.30
73955;DHT22;62306;52.516;13.290;2022-08-02T04:46:14;19.20;66.60
73955;DHT22;62306;52.516;13.290;2022-08-02T04:48:42;19.30;66.00
73955;DHT22;62306;52.516;13.290;2022-08-02T04:51:09;19.40;65.20
73955;DHT22;62306;52.516;13.290;2022-08-02T04:53:36;19.60;64.70
73955;DHT22;62306;52.516;13.290;2022-08-02T04:56:03;19.60;64.00
73955;DHT22;62306;52.516;13.290;2022-08-02T04:58:30;19.70;63.40
73955;DHT22;62306;52.516;13.290;2022-08-02T05:00:57;19.90;62.70
73955;DHT22;62306;52.516;13.290;2022-08-02T05:03:24;19.80;62.30
73955;DHT22;62306;52.516;13.290;2022-08-02T05:05:53;19.90;62.60
73955;DHT22;62306;52.516;13.290;2022-08-02T05:08:20;19.90;62.10
73955;DHT22;62306;52.516;13.290;2022-08-02T05:10:47;20.00;62.30
73955;DHT22;62306;52.516;13.290;2022-08-02T05:13:13;20.20;62.10
73955;DHT22;62306;52.516;13.290;2022-08-02T05:15:40;20.30;61.20
73955;DHT22;62306;52.516;13.290;2022-08-02T05:18:07;20.60;60.70
73955;DHT22;62306;52.516;13.290;2022-08-02T05:20:35;20.70;59.90
73955;DHT22;62306;52.516;13.290;2022-08-02T05:23:03;20.70;59.20
73955;DHT22;62306;52.516;13.290;2022-08-02T05:25:30;20.70;59.20
73955;DHT22;62306;52.516;13.290;2022-08-02T05:27:57;20.80;59.60
73955;DHT22;62306;52.516;13.290;2022-08-02T05:30:24;20.90;59.70
73955;DHT22;62306;52.516;13.290;2022-08-02T05:32:51;21.00;59.30
73955;DHT22;62306;52.516;13.290;2022-08-02T05:35:19;21.70;57.90
73955;DHT22;62306;52.516;13.290;2022-08-02T05:37:46;23.30;54.00
73955;DHT22;62306;52.516;13.290;2022-08-02T05:40:15;25.20;48.80
73955;DHT22;62306;52.516;13.290;2022-08-02T05:42:42;26.80;45.20
73955;DHT22;62306;52.516;13.290;2022-08-02T05:45:10;28.40;41.90
73955;DHT22;62306;52.516;13.290;2022-08-02T05:47:37;29.60;39.10
73955;DHT22;62306;52.516;13.290;2022-08-02T05:50:06;30.20;37.40
73955;DHT22;62306;52.516;13.290;2022-08-02T05:52:43;30.50;37.00
73955;DHT22;62306;52.516;13.290;2022-08-02T05:55:13;30.30;36.40
73955;DHT22;62306;52.516;13.290;2022-08-02T05:57:50;30.10;37.00
73955;DHT22;62306;52.516;13.290;2022-08-02T06:00:19;30.60;36.00
73955;DHT22;62306;52.516;13.290;2022-08-02T06:03:00;30.40;36.50
73955;DHT22;62306;52.516;13.290;2022-08-02T06:05:32;30.40;36.60
73955;DHT22;62306;52.516;13.290;2022-08-02T06:08:00;31.40;35.40
73955;DHT22;62306;52.516;13.290;2022-08-02T06:10:28;32.00;34.30
73955;DHT22;62306;52.516;13.290;2022-08-02T06:13:07;31.70;34.70
73955;DHT22;62306;52.516;13.290;2022-08-02T06:15:35;30.70;36.00
73955;DHT22;62306;52.516;13.290;2022-08-02T06:18:03;29.90;37.20
73955;DHT22;62306;52.516;13.290;2022-08-02T06:20:30;29.60;38.50
73955;DHT22;62306;52.516;13.290;2022-08-02T06:23:01;29.30;38.40
73955;DHT22;62306;52.516;13.290;2022-08-02T06:25:29;29.00;38.60
73955;DHT22;62306;52.516;13.290;2022-08-02T06:27:58;28.80;39.00
73955;DHT22;62306;52.516;13.290;2022-08-02T06:30:26;28.50;38.70
73955;DHT22;62306;52.516;13.290;2022-08-02T06:32:53;28.00;38.30
73955;DHT22;62306;52.516;13.290;2022-08-02T06:35:21;27.50;38.90
73955;DHT22;62306;52.516;13.290;2022-08-02T06:37:50;27.00;39.90
73955;DHT22;62306;52.516;13.290;2022-08-02T06:40:25;26.80;40.50
73955;DHT22;62306;52.516;13.290;2022-08-02T06:43:03;26.70;40.40
73955;DHT22;62306;52.516;13.290;2022-08-02T06:45:31;26.30;41.60
73955;DHT22;62306;52.516;13.290;2022-08-02T06:47:58;26.30;41.90
73955;DHT22;62306;52.516;13.290;2022-08-02T06:50:25;26.20;41.50
73955;DHT22;62306;52.516;13.290;2022-08-02T06:52:52;26.10;41.90
73955;DHT22;62306;52.516;13.290;2022-08-02T06:55:19;26.20;41.50
73955;DHT22;62306;52.516;13.290;2022-08-02T06:57:46;26.60;41.20
73955;DHT22;62306;52.516;13.290;2022-08-02T07:00:15;26.60;39.70
73955;DHT22;62306;52.516;13.290;2022-08-02T07:02:42;26.40;40.30
73955;DHT22;62306;52.516;13.290;2022-08-02T07:05:09;26.00;41.40
73955;DHT22;62306;52.516;13.290;2022-08-02T07:07:36;26.00;41.50
73955;DHT22;62306;52.516;13.290;2022-08-02T07:10:04;26.10;41.40
73955;DHT22;62306;52.516;13.290;2022-08-02T07:12:32;26.00;41.70
73955;DHT22;62306;52.516;13.290;2022-08-02T07:15:01;26.20;41.10
73955;DHT22;62306;52.516;13.290;2022-08-02T07:17:30;26.10;41.40
73955;DHT22;62306;52.516;13.290;2022-08-02T07:19:57;25.90;41.90
73955;DHT22;62306;52.516;13.290;2022-08-02T07:22:25;25.70;41.60
73955;DHT22;62306;52.516;13.290;2022-08-02T07:24:53;25.80;41.40
73955;DHT22;62306;52.516;13.290;2022-08-02T07:27:21;25.70;41.70
73955;DHT22;62306;52.516;13.290;2022-08-02T07:29:48;25.60;41.90
73955;DHT22;62306;52.516;13.290;2022-08-02T07:32:16;25.60;41.50
73955;DHT22;62306;52.516;13.290;2022-08-02T07:34:45;25.70;41.40
73955;DHT22;62306;52.516;13.290;2022-08-02T07:37:12;25.70;42.20
73955;DHT22;62306;52.516;13.290;2022-08-02T07:39:39;25.70;42.00
73955;DHT22;62306;52.516;13.290;2022-08-02T07:42:06;25.80;42.00
73955;DHT22;62306;52.516;13.290;2022-08-02T07:44:33;25.90;42.30
73955;DHT22;62306;52.516;13.290;2022-08-02T07:47:00;25.90;42.30
73955;DHT22;62306;52.516;13.290;2022-08-02T07:49:28;26.20;41.80
73955;DHT22;62306;52.516;13.290;2022-08-02T07:51:56;26.30;40.80
73955;DHT22;62306;52.516;13.290;2022-08-02T07:54:23;26.40;41.10
73955;DHT22;62306;52.516;13.290;2022-08-02T07:56:50;26.60;40.40
73955;DHT22;62306;52.516;13.290;2022-08-02T07:59:19;26.50;40.70
73955;DHT22;62306;52.516;13.290;2022-08-02T08:01:47;26.40;40.80
73955;DHT22;62306;52.516;13.290;2022-08-02T08:04:14;26.30;40.70
73955;DHT22;62306;52.516;13.290;2022-08-02T08:06:42;26.00;40.80
73955;DHT22;62306;52.516;13.290;2022-08-02T08:09:10;25.90;41.90
73955;DHT22;62306;52.516;13.290;2022-08-02T08:11:37;26.20;41.70
73955;DHT22;62306;52.516;13.290;2022-08-02T08:14:04;26.50;41.00
73955;DHT22;62306;52.516;13.290;2022-08-02T08:16:32;26.60;40.60
73955;DHT22;62306;52.516;13.290;2022-08-02T08:18:59;26.70;40.70
73955;DHT22;62306;52.516;13.290;2022-08-02T08:21:27;26.80;39.50
73955;DHT22;62306;52.516;13.290;2022-08-02T08:23:54;26.90;39.70
73955;DHT22;62306;52.516;13.290;2022-08-02T08:26:23;26.70;40.20
73955;DHT22;62306;52.516;13.290;2022-08-02T08:28:51;26.60;40.60
73955;DHT22;62306;52.516;13.290;2022-08-02T08:31:18;26.50;40.10
73955;DHT22;62306;52.516;13.290;2022-08-02T08:33:45;26.60;40.60
73955;DHT22;62306;52.516;13.290;2022-08-02T08:36:12;26.50;40.30
73955;DHT22;62306;52.516;13.290;2022-08-02T08:38:41;26.60;40.40
73955;DHT22;62306;52.516;13.290;2022-08-02T08:41:08;26.80;40.30
73955;DHT22;62306;52.516;13.290;2022-08-02T08:43:37;27.10;39.90
73955;DHT22;62306;52.516;13.290;2022-08-02T08:46:05;27.40;39.60
73955;DHT22;62306;52.516;13.290;2022-08-02T08:48:40;27.70;39.60
73955;DHT22;62306;52.516;13.290;2022-08-02T08:51:10;27.90;38.00
73955;DHT22;62306;52.516;13.290;2022-08-02T08:53:42;27.50;38.60
73955;DHT22;62306;52.516;13.290;2022-08-02T08:56:11;27.20;39.60
73955;DHT22;62306;52.516;13.290;2022-08-02T08:58:39;27.40;39.50
73955;DHT22;62306;52.516;13.290;2022-08-02T09:01:06;27.60;39.30
73955;DHT22;62306;52.516;13.290;2022-08-02T09:03:33;27.70;38.80
73955;DHT22;62306;52.516;13.290;2022-08-02T09:06:02;27.80;38.80
73955;DHT22;62306;52.516;13.290;2022-08-02T09:08:29;27.90;38.60
73955;DHT22;62306;52.516;13.290;2022-08-02T09:10:56;27.80;38.90
73955;DHT22;62306;52.516;13.290;2022-08-02T09:13:25;27.90;38.80
73955;DHT22;62306;52.516;13.290;2022-08-02T09:15:57;27.90;38.10
73955;DHT22;62306;52.516;13.290;2022-08-02T09:18:30;27.90;38.40
73955;DHT22;62306;52.516;13.290;2022-08-02T09:20:59;27.80;38.70
73955;DHT22;62306;52.516;13.290;2022-08-02T09:23:33;27.60;38.40
73955;DHT22;62306;52.516;13.290;2022-08-02T09:26:01;27.00;39.40
73955;DHT22;62306;52.516;13.290;2022-08-02T09:28:31;26.70;40.30
73955;DHT22;62306;52.516;13.290;2022-08-02T09:31:07;26.60;40.40
73955;DHT22;62306;52.516;13.290;2022-08-02T09:33:36;26.40;40.80
73955;DHT22;62306;52.516;13.290;2022-08-02T09:36:05;26.20;41.20
73955;DHT22;62306;52.516;13.290;2022-08-02T09:38:33;26.60;40.90
73955;DHT22;62306;52.516;13.290;2022-08-02T09:41:03;26.90;40.30
73955;DHT22;62306;52.516;13.290;2022-08-02T09:43:37;27.20;39.10
73955;DHT22;62306;52.516;13.290;2022-08-02T09:46:14;26.80;39.70
73955;DHT22;62306;52.516;13.290;2022-08-02T09:48:48;26.60;40.20
73955;DHT22;62306;52.516;13.290;2022-08-02T09:51:17;26.80;40.80
73955;DHT22;62306;52.516;13.290;2022-08-02T09:53:47;26.90;40.00
73955;DHT22;62306;52.516;13.290;2022-08-02T09:56:15;27.00;40.00
73955;DHT22;62306;52.516;13.290;2022-08-02T09:58:42;27.00;40.20
73955;DHT22;62306;52.516;13.290;2022-08-02T10:01:10;26.90;39.70
73955;DHT22;62306;52.516;13.290;2022-08-02T10:03:52;26.60;40.20
73955;DHT22;62306;52.516;13.290;2022-08-02T10:06:20;26.30;40.90
73955;DHT22;62306;52.516;13.290;2022-08-02T10:08:47;26.10;41.60
73955;DHT22;62306;52.516;13.290;2022-08-02T10:11:15;26.30;41.30
73955;DHT22;62306;52.516;13.290;2022-08-02T10:13:43;26.50;41.30
73955;DHT22;62306;52.516;13.290;2022-08-02T10:16:11;26.70;40.10
73955;DHT22;62306;52.516;13.290;2022-08-02T10:18:40;26.60;39.90
73955;DHT22;62306;52.516;13.290;2022-08-02T10:21:12;26.50;40.60
73955;DHT22;62306;52.516;13.290;2022-08-02T10:23:42;26.30;40.90
73955;DHT22;62306;52.516;13.290;2022-08-02T10:26:14;26.30;40.50
73955;DHT22;62306;52.516;13.290;2022-08-02T10:28:41;26.40;40.70
73955;DHT22;62306;52.516;13.290;2022-08-02T10:31:11;26.50;40.50
73955;DHT22;62306;52.516;13.290;2022-08-02T10:33:43;26.50;40.70
73955;DHT22;62306;52.516;13.290;2022-08-02T10:36:12;26.70;40.40
73955;DHT22;62306;52.516;13.290;2022-08-02T10:38:40;27.00;40.10
73955;DHT22;62306;52.516;13.290;2022-08-02T10:41:09;27.30;39.70
73955;DHT22;62306;52.516;13.290;2022-08-02T10:43:42;27.30;39.50
73955;DHT22;62306;52.516;13.290;2022-08-02T10:46:34;27.10;39.90
73955;DHT22;62306;52.516;13.290;2022-08-02T10:49:06;27.00;39.70
73955;DHT22;62306;52.516;13.290;2022-08-02T10:54:39;26.80;40.40
73955;DHT22;62306;52.516;13.290;2022-08-02T10:57:21;26.80;40.30
73955;DHT22;62306;52.516;13.290;2022-08-02T10:59:49;26.70;40.10
73955;DHT22;62306;52.516;13.290;2022-08-02T11:02:35;26.60;40.50
73955;DHT22;62306;52.516;13.290;2022-08-02T11:05:07;26.70;40.40
73955;DHT22;62306;52.516;13.290;2022-08-02T11:07:36;26.50;40.50
73955;DHT22;62306;52.516;13.290;2022-08-02T11:10:33;26.30;40.80
73955;DHT22;62306;52.516;13.290;2022-08-02T11:15:54;26.70;40.40
73955;DHT22;62306;52.516;13.290;2022-08-02T11:18:23;26.80;39.90
73955;DHT22;62306;52.516;13.290;2022-08-02T11:21:23;26.90;40.20
73955;DHT22;62306;52.516;13.290;2022-08-02T11:23:51;26.90;39.10
73955;DHT22;62306;52.516;13.290;2022-08-02T11:26:43;27.00;39.60
73955;DHT22;62306;52.516;13.290;2022-08-02T11:29:11;27.10;38.90
73955;DHT22;62306;52.516;13.290;2022-08-02T11:31:39;27.20;39.10
73955;DHT22;62306;52.516;13.290;2022-08-02T11:34:06;27.20;39.00
73955;DHT22;62306;52.516;13.290;2022-08-02T11:36:44;27.30;37.40
73955;DHT22;62306;52.516;13.290;2022-08-02T11:39:13;27.40;37.80
73955;DHT22;62306;52.516;13.290;2022-08-02T11:41:41;27.40;37.60
73955;DHT22;62306;52.516;13.290;2022-08-02T11:44:08;27.40;37.60
73955;DHT22;62306;52.516;13.290;2022-08-02T11:46:35;27.50;37.80
73955;DHT22;62306;52.516;13.290;2022-08-02T11:49:17;27.60;37.10
73955;DHT22;62306;52.516;13.290;2022-08-02T11:51:55;27.70;37.20
73955;DHT22;62306;52.516;13.290;2022-08-02T11:54:27;27.70;37.00
73955;DHT22;62306;52.516;13.290;2022-08-02T11:56:54;27.80;37.00
73955;DHT22;62306;52.516;13.290;2022-08-02T11:59:36;27.80;35.70
73955;DHT22;62306;52.516;13.290;2022-08-02T12:02:05;27.80;36.00
73955;DHT22;62306;52.516;13.290;2022-08-02T12:04:32;27.60;36.40
73955;DHT22;62306;52.516;13.290;2022-08-02T12:07:01;27.50;37.00
73955;DHT22;62306;52.516;13.290;2022-08-02T12:09:30;27.50;36.50
73955;DHT22;62306;52.516;13.290;2022-08-02T12:11:58;27.60;36.40
73955;DHT22;62306;52.516;13.290;2022-08-02T12:14:29;27.60;36.60
73955;DHT22;62306;52.516;13.290;2022-08-02T12:16:57;27.70;36.80
73955;DHT22;62306;52.516;13.290;2022-08-02T12:19:43;27.70;37.00
73955;DHT22;62306;52.516;13.290;2022-08-02T12:22:16;27.60;36.60
73955;DHT22;62306;52.516;13.290;2022-08-02T12:24:46;27.50;37.10
73955;DHT22;62306;52.516;13.290;2022-08-02T12:27:34;27.60;37.30
73955;DHT22;62306;52.516;13.290;2022-08-02T12:30:04;27.70;37.20
73955;DHT22;62306;52.516;13.290;2022-08-02T12:32:32;27.90;36.70
73955;DHT22;62306;52.516;13.290;2022-08-02T12:35:01;28.00;36.50
73955;DHT22;62306;52.516;13.290;2022-08-02T12:37:29;28.00;35.60
73955;DHT22;62306;52.516;13.290;2022-08-02T12:39:56;28.10;36.00
73955;DHT22;62306;52.516;13.290;2022-08-02T12:42:23;28.10;35.50
73955;DHT22;62306;52.516;13.290;2022-08-02T12:44:52;28.20;34.80
73955;DHT22;62306;52.516;13.290;2022-08-02T12:47:20;28.30;34.40
73955;DHT22;62306;52.516;13.290;2022-08-02T12:52:30;28.30;34.40
73955;DHT22;62306;52.516;13.290;2022-08-02T12:54:58;28.40;34.50
73955;DHT22;62306;52.516;13.290;2022-08-02T12:57:25;28.40;33.80
73955;DHT22;62306;52.516;13.290;2022-08-02T12:59:52;28.40;33.90
73955;DHT22;62306;52.516;13.290;2022-08-02T13:02:19;28.30;33.90
73955;DHT22;62306;52.516;13.290;2022-08-02T13:04:47;28.40;34.50
73955;DHT22;62306;52.516;13.290;2022-08-02T13:07:14;28.40;34.60
73955;DHT22;62306;52.516;13.290;2022-08-02T13:09:42;28.30;34.50
73955;DHT22;62306;52.516;13.290;2022-08-02T13:12:11;28.10;34.60
73955;DHT22;62306;52.516;13.290;2022-08-02T13:14:37;28.10;34.20
73955;DHT22;62306;52.516;13.290;2022-08-02T13:17:04;28.20;33.70
73955;DHT22;62306;52.516;13.290;2022-08-02T13:19:31;28.20;33.90
73955;DHT22;62306;52.516;13.290;2022-08-02T13:21:59;28.30;32.40
73955;DHT22;62306;52.516;13.290;2022-08-02T13:24:26;28.40;33.00
73955;DHT22;62306;52.516;13.290;2022-08-02T13:26:54;28.30;33.20
73955;DHT22;62306;52.516;13.290;2022-08-02T13:29:21;28.40;33.70
73955;DHT22;62306;52.516;13.290;2022-08-02T13:31:48;28.40;33.90
73955;DHT22;62306;52.516;13.290;2022-08-02T13:34:15;28.50;34.10
73955;DHT22;62306;52.516;13.290;2022-08-02T13:36:42;28.60;33.90
73955;DHT22;62306;52.516;13.290;2022-08-02T13:39:09;28.60;33.00
73955;DHT22;62306;52.516;13.290;2022-08-02T13:41:37;28.50;33.40
73955;DHT22;62306;52.516;13.290;2022-08-02T13:44:05;28.50;33.60
73955;DHT22;62306;52.516;13.290;2022-08-02T13:46:33;28.60;33.80
73955;DHT22;62306;52.516;13.290;2022-08-02T13:49:01;28.60;34.00
73955;DHT22;62306;52.516;13.290;2022-08-02T13:51:28;28.50;34.50
73955;DHT22;62306;52.516;13.290;2022-08-02T13:53:55;28.60;34.50
73955;DHT22;62306;52.516;13.290;2022-08-02T13:56:22;28.70;34.70
73955;DHT22;62306;52.516;13.290;2022-08-02T13:58:49;28.70;34.40
73955;DHT22;62306;52.516;13.290;2022-08-02T14:01:18;28.70;33.80
73955;DHT22;62306;52.516;13.290;2022-08-02T14:03:45;28.60;34.10
73955;DHT22;62306;52.516;13.290;2022-08-02T14:06:11;28.60;34.50
73955;DHT22;62306;52.516;13.290;2022-08-02T14:08:39;28.60;35.10
73955;DHT22;62306;52.516;13.290;2022-08-02T14:11:06;28.60;34.20
73955;DHT22;62306;52.516;13.290;2022-08-02T14:13:33;28.70;33.70
73955;DHT22;62306;52.516;13.290;2022-08-02T14:16:00;28.80;33.80
73955;DHT22;62306;52.516;13.290;2022-08-02T14:18:28;28.80;33.90
73955;DHT22;62306;52.516;13.290;2022-08-02T14:20:55;28.80;34.70
73955;DHT22;62306;52.516;13.290;2022-08-02T14:23:22;28.70;35.00
73955;DHT22;62306;52.516;13.290;2022-08-02T14:25:49;28.60;34.60
73955;DHT22;62306;52.516;13.290;2022-08-02T14:28:16;28.60;34.60
73955;DHT22;62306;52.516;13.290;2022-08-02T14:30:43;28.60;34.40
73955;DHT22;62306;52.516;13.290;2022-08-02T14:33:10;28.60;34.30
73955;DHT22;62306;52.516;13.290;2022-08-02T14:35:38;28.60;34.30
73955;DHT22;62306;52.516;13.290;2022-08-02T14:38:05;28.40;34.70
73955;DHT22;62306;52.516;13.290;2022-08-02T14:40:33;28.40;34.90
73955;DHT22;62306;52.516;13.290;2022-08-02T14:43:00;28.50;34.70
73955;DHT22;62306;52.516;13.290;2022-08-02T14:45:27;28.50;34.70
73955;DHT22;62306;52.516;13.290;2022-08-02T14:47:54;28.60;34.70
73955;DHT22;62306;52.516;13.290;2022-08-02T14:50:22;28.70;34.20
73955;DHT22;62306;52.516;13.290;2022-08-02T14:52:50;28.80;33.80
73955;DHT22;62306;52.516;13.290;2022-08-02T14:55:17;28.60;33.90
73955;DHT22;62306;52.516;13.290;2022-08-02T14:57:44;28.70;34.40
73955;DHT22;62306;52.516;13.290;2022-08-02T15:00:12;28.70;34.40
73955;DHT22;62306;52.516;13.290;2022-08-02T15:02:41;28.50;34.50
73955;DHT22;62306;52.516;13.290;2022-08-02T15:05:08;28.50;34.60
73955;DHT22;62306;52.516;13.290;2022-08-02T15:07:35;28.60;34.80
73955;DHT22;62306;52.516;13.290;2022-08-02T15:10:04;28.60;34.50
73955;DHT22;62306;52.516;13.290;2022-08-02T15:12:31;28.60;34.30
73955;DHT22;62306;52.516;13.290;2022-08-02T15:14:58;28.40;34.70
73955;DHT22;62306;52.516;13.290;2022-08-02T15:17:25;28.30;35.10
73955;DHT22;62306;52.516;13.290;2022-08-02T15:19:52;28.30;35.30
73955;DHT22;62306;52.516;13.290;2022-08-02T15:22:19;28.40;34.90
73955;DHT22;62306;52.516;13.290;2022-08-02T15:24:47;28.40;34.90
73955;DHT22;62306;52.516;13.290;2022-08-02T15:27:16;28.30;35.30
73955;DHT22;62306;52.516;13.290;2022-08-02T15:29:43;28.30;35.50
73955;DHT22;62306;52.516;13.290;2022-08-02T15:32:11;28.30;35.60
73955;DHT22;62306;52.516;13.290;2022-08-02T15:34:38;28.30;35.50
73955;DHT22;62306;52.516;13.290;2022-08-02T15:37:05;28.30;35.60